createdAt,value
2024-01-21T00:00:01.289Z,1.00
2024-01-21T00:01:05.092Z,99.90
2024-01-21T00:02:10.426Z,99.90
2024-01-21T00:03:15.734Z,99.90
2024-01-21T00:04:20.500Z,1.00
2024-01-21T00:05:22.764Z,1.00
2024-01-21T00:06:27.265Z,1.00
2024-01-21T00:07:31.675Z,99.90
2024-01-21T00:08:37.645Z,1.00
2024-01-21T00:09:42.657Z,1.00
2024-01-21T00:10:45.214Z,1.00
2024-01-21T00:11:47.546Z,1.00
2024-01-21T00:12:52.722Z,1.00
2024-01-21T00:13:54.639Z,1.00
2024-01-21T00:14:57.003Z,1.00
2024-01-21T00:15:59.000Z,1.00
2024-01-21T00:17:01.512Z,1.00
2024-01-21T00:18:06.893Z,1.00
2024-01-21T00:19:09.391Z,1.00
2024-01-21T00:20:12.109Z,1.00
2024-01-21T00:21:14.359Z,1.00
2024-01-21T00:22:16.612Z,1.00
2024-01-21T00:23:18.842Z,1.00
2024-01-21T00:24:21.152Z,1.00
2024-01-21T00:25:25.755Z,1.00
2024-01-21T00:26:27.823Z,1.00
2024-01-21T00:27:32.572Z,1.00
2024-01-21T00:28:37.122Z,1.00
2024-01-21T00:29:39.383Z,1.00
2024-01-21T00:30:46.422Z,1.00
2024-01-21T00:31:52.121Z,1.00
2024-01-21T00:32:56.749Z,1.00
2024-01-21T00:33:58.948Z,1.00
2024-01-21T00:35:01.207Z,1.00
2024-01-21T00:36:03.521Z,1.00
2024-01-21T00:37:05.644Z,8.40
2024-01-21T00:38:07.614Z,12.70
2024-01-21T00:39:11.727Z,98.00
2024-01-21T00:40:17.522Z,1.00
2024-01-21T00:41:20.820Z,1.00
2024-01-21T00:42:22.846Z,1.00
2024-01-21T00:43:25.388Z,14.30
2024-01-21T00:44:29.460Z,1.00
2024-01-21T00:45:34.197Z,1.00
2024-01-21T00:46:39.905Z,1.00
2024-01-21T00:47:42.962Z,99.90
2024-01-21T00:48:48.432Z,98.80
2024-01-21T00:49:52.950Z,34.40
2024-01-21T00:50:55.069Z,88.00
2024-01-21T00:51:58.030Z,99.90
2024-01-21T00:53:00.056Z,99.90
2024-01-21T00:54:02.295Z,99.90
2024-01-21T00:55:07.224Z,38.10
2024-01-21T00:56:09.324Z,23.60
2024-01-21T00:57:13.571Z,7.70
2024-01-21T00:58:18.027Z,1.00
2024-01-21T00:59:27.167Z,12.70
2024-01-21T01:00:30.059Z,45.90
2024-01-21T01:01:39.128Z,17.80
2024-01-21T01:02:45.199Z,12.80
2024-01-21T01:03:50.860Z,56.50
2024-01-21T01:04:55.928Z,1.00
2024-01-21T01:06:00.483Z,10.70
2024-01-21T01:07:02.555Z,1.00
2024-01-21T01:08:05.163Z,1.00
2024-01-21T01:09:07.483Z,1.00
2024-01-21T01:10:12.187Z,1.00
2024-01-21T01:11:17.688Z,1.00
2024-01-21T01:12:20.307Z,1.00
2024-01-21T01:13:22.575Z,1.00
2024-01-21T01:14:24.780Z,1.00
2024-01-21T01:15:27.124Z,99.90
2024-01-21T01:16:31.572Z,99.90
2024-01-21T01:17:33.732Z,99.90
2024-01-21T01:18:35.981Z,99.90
2024-01-21T01:19:38.446Z,99.90
2024-01-21T01:20:42.928Z,99.90
2024-01-21T01:21:48.113Z,99.90
2024-01-21T01:22:50.188Z,99.90
2024-01-21T01:23:54.549Z,99.90
2024-01-21T01:24:56.933Z,99.90
2024-01-21T01:25:58.977Z,99.90
2024-01-21T01:27:01.099Z,99.90
2024-01-21T01:28:07.064Z,99.90
2024-01-21T01:29:09.490Z,99.90
2024-01-21T01:30:12.519Z,99.90
2024-01-21T01:31:21.694Z,99.90
2024-01-21T01:32:23.708Z,99.90
2024-01-21T01:33:26.161Z,99.90
2024-01-21T01:34:28.360Z,99.90
2024-01-21T01:35:30.439Z,99.90
2024-01-21T01:36:35.113Z,99.90
2024-01-21T01:37:37.324Z,99.90
2024-01-21T01:38:40.469Z,99.90
2024-01-21T01:39:42.706Z,99.90
2024-01-21T01:40:44.767Z,99.90
2024-01-21T01:41:49.409Z,99.90
2024-01-21T01:43:03.549Z,99.90
2024-01-21T01:44:07.568Z,99.90
2024-01-21T01:45:11.813Z,99.90
2024-01-21T01:46:14.920Z,99.90
2024-01-21T01:47:18.006Z,99.90
2024-01-21T01:48:22.980Z,99.90
2024-01-21T01:49:28.950Z,99.90
2024-01-21T01:50:32.260Z,99.90
2024-01-21T01:51:37.878Z,99.90
2024-01-21T01:52:40.768Z,80.00
2024-01-21T01:53:43.479Z,66.80
2024-01-21T01:54:47.567Z,64.00
2024-01-21T01:55:50.110Z,79.80
2024-01-21T01:56:53.727Z,94.80
2024-01-21T01:57:57.244Z,99.90
2024-01-21T01:59:02.812Z,99.90
2024-01-21T02:00:07.976Z,99.90
2024-01-21T02:01:13.053Z,99.90
2024-01-21T02:02:15.624Z,99.90
2024-01-21T02:03:17.707Z,99.90
2024-01-21T02:04:19.934Z,99.90
2024-01-21T02:05:24.906Z,99.90
2024-01-21T02:06:29.743Z,99.90
2024-01-21T02:07:32.267Z,99.90
2024-01-21T02:08:34.198Z,99.90
2024-01-21T02:09:36.600Z,68.80
2024-01-21T02:10:38.666Z,42.10
2024-01-21T02:11:40.626Z,41.40
2024-01-21T02:12:44.618Z,42.30
2024-01-21T02:13:46.748Z,58.70
2024-01-21T02:14:48.712Z,42.60
2024-01-21T02:15:50.537Z,13.90
2024-01-21T02:16:52.347Z,1.00
2024-01-21T02:17:54.165Z,1.00
2024-01-21T02:18:56.591Z,1.00
2024-01-21T02:19:58.539Z,1.00
2024-01-21T02:21:00.270Z,1.00
2024-01-21T02:22:01.922Z,1.00
2024-01-21T02:23:08.017Z,1.00
2024-01-21T02:24:09.949Z,1.00
2024-01-21T02:25:11.904Z,1.00
2024-01-21T02:26:13.713Z,1.00
2024-01-21T02:27:15.517Z,1.00
2024-01-21T02:28:17.398Z,1.00
2024-01-21T02:29:20.557Z,1.00
2024-01-21T02:30:22.863Z,1.00
2024-01-21T02:31:24.713Z,1.00
2024-01-21T02:32:27.941Z,1.00
2024-01-21T02:33:29.864Z,1.00
2024-01-21T02:34:32.596Z,1.00
2024-01-21T02:35:34.394Z,1.00
2024-01-21T02:36:36.275Z,1.00
2024-01-21T02:37:38.249Z,1.00
2024-01-21T02:38:40.027Z,1.00
2024-01-21T02:39:41.723Z,1.00
2024-01-21T02:40:43.437Z,1.00
2024-01-21T02:41:45.649Z,1.00
2024-01-21T02:42:47.570Z,1.00
2024-01-21T02:43:49.462Z,1.00
2024-01-21T02:44:51.493Z,1.00
2024-01-21T02:45:53.426Z,1.00
2024-01-21T02:46:55.293Z,1.00
2024-01-21T02:47:57.224Z,1.00
2024-01-21T02:48:59.411Z,1.00
2024-01-21T02:50:01.166Z,1.00
2024-01-21T02:51:02.945Z,1.00
2024-01-21T02:52:05.185Z,1.00
2024-01-21T02:53:06.918Z,1.00
2024-01-21T02:54:08.673Z,1.00
2024-01-21T02:55:10.631Z,1.00
2024-01-21T02:56:23.091Z,1.00
2024-01-21T02:57:24.887Z,18.60
2024-01-21T02:58:26.660Z,37.10
2024-01-21T02:59:28.372Z,61.30
2024-01-21T03:00:30.027Z,31.70
2024-01-21T03:01:34.732Z,49.50
2024-01-21T03:02:37.120Z,99.90
2024-01-21T03:03:38.896Z,99.90
2024-01-21T03:04:40.967Z,99.90
2024-01-21T03:05:42.674Z,99.90
2024-01-21T03:06:45.012Z,99.90
2024-01-21T03:07:46.832Z,99.90
2024-01-21T03:08:48.878Z,99.90
2024-01-21T03:09:50.875Z,99.90
2024-01-21T03:10:52.768Z,99.90
2024-01-21T03:11:57.587Z,1.00
2024-01-21T03:12:59.398Z,1.00
2024-01-21T03:14:02.329Z,1.00
2024-01-21T03:15:07.434Z,1.00
2024-01-21T03:16:09.158Z,1.00
2024-01-21T03:17:11.222Z,1.00
2024-01-21T03:18:13.164Z,1.00
2024-01-21T03:19:15.670Z,1.00
2024-01-21T03:20:17.648Z,1.00
2024-01-21T03:21:19.604Z,1.00
2024-01-21T03:22:21.313Z,1.00
2024-01-21T03:23:23.130Z,1.00
2024-01-21T03:24:26.065Z,99.90
2024-01-21T03:25:27.933Z,99.90
2024-01-21T03:26:29.695Z,99.90
2024-01-21T03:27:31.491Z,99.90
2024-01-21T03:28:33.845Z,99.90
2024-01-21T03:29:35.642Z,99.90
2024-01-21T03:30:37.968Z,99.90
2024-01-21T03:31:39.920Z,99.90
2024-01-21T03:32:41.770Z,99.90
2024-01-21T03:33:43.818Z,99.90
2024-01-21T03:34:46.193Z,99.90
2024-01-21T03:35:48.673Z,99.90
2024-01-21T03:36:50.456Z,99.90
2024-01-21T03:37:52.824Z,99.90
2024-01-21T03:38:55.008Z,99.90
2024-01-21T03:39:57.224Z,99.90
2024-01-21T03:40:59.063Z,1.00
2024-01-21T03:42:00.919Z,1.00
2024-01-21T03:43:02.689Z,1.00
2024-01-21T03:44:05.375Z,1.00
2024-01-21T03:45:07.980Z,1.00
2024-01-21T03:46:12.197Z,1.00
2024-01-21T03:47:13.938Z,1.00
2024-01-21T03:48:15.852Z,1.00
2024-01-21T03:49:17.784Z,99.90
2024-01-21T03:50:21.515Z,99.90
2024-01-21T03:51:23.463Z,99.90
2024-01-21T03:52:25.341Z,99.90
2024-01-21T03:53:27.109Z,99.90
2024-01-21T03:54:28.926Z,99.90
2024-01-21T03:55:30.716Z,99.90
2024-01-21T03:56:32.518Z,99.90
2024-01-21T03:57:34.283Z,99.90
2024-01-21T03:58:36.133Z,99.90
2024-01-21T03:59:39.635Z,99.90
2024-01-21T04:00:41.444Z,99.90
2024-01-21T04:01:44.628Z,99.90
2024-01-21T04:02:46.720Z,99.90
2024-01-21T04:03:48.640Z,99.90
2024-01-21T04:04:50.596Z,99.90
2024-01-21T04:05:52.416Z,99.90
2024-01-21T04:06:54.332Z,99.90
2024-01-21T04:07:56.234Z,99.90
2024-01-21T04:08:57.860Z,99.90
2024-01-21T04:09:59.959Z,99.90
2024-01-21T04:11:01.833Z,99.90
2024-01-21T04:12:03.711Z,99.90
2024-01-21T04:13:05.413Z,1.00
2024-01-21T04:14:07.149Z,1.00
2024-01-21T04:15:09.192Z,1.00
2024-01-21T04:16:10.993Z,1.00
2024-01-21T04:17:12.999Z,1.00
2024-01-21T04:18:14.865Z,1.00
2024-01-21T04:19:19.754Z,1.00
2024-01-21T04:20:21.501Z,1.00
2024-01-21T04:21:23.278Z,1.00
2024-01-21T04:22:25.182Z,1.00
2024-01-21T04:23:26.906Z,1.00
2024-01-21T04:24:28.687Z,1.00
2024-01-21T04:25:30.478Z,1.00
2024-01-21T04:26:32.511Z,1.00
2024-01-21T04:27:34.820Z,1.00
2024-01-21T04:28:39.305Z,1.00
2024-01-21T04:29:41.117Z,1.00
2024-01-21T04:30:42.988Z,1.00
2024-01-21T04:31:45.069Z,1.00
2024-01-21T04:32:46.950Z,1.00
2024-01-21T04:33:48.781Z,1.00
2024-01-21T04:34:50.731Z,1.00
2024-01-21T04:35:52.918Z,1.00
2024-01-21T04:36:54.817Z,1.00
2024-01-21T04:37:56.617Z,1.00
2024-01-21T04:38:58.293Z,1.00
2024-01-21T04:40:01.009Z,1.00
2024-01-21T04:41:02.910Z,1.00
2024-01-21T04:42:05.132Z,1.00
2024-01-21T04:43:07.354Z,1.00
2024-01-21T04:44:09.149Z,1.00
2024-01-21T04:45:12.087Z,1.00
2024-01-21T04:46:14.348Z,1.00
2024-01-21T04:47:16.140Z,1.00
2024-01-21T04:48:18.079Z,1.00
2024-01-21T04:49:20.373Z,1.00
2024-01-21T04:50:22.132Z,1.00
2024-01-21T04:51:23.907Z,1.00
2024-01-21T04:52:25.839Z,40.50
2024-01-21T04:53:30.985Z,59.10
2024-01-21T04:54:33.060Z,99.90
2024-01-21T04:55:34.794Z,99.90
2024-01-21T04:56:37.534Z,99.90
2024-01-21T04:57:40.182Z,99.90
2024-01-21T04:58:41.887Z,99.90
2024-01-21T04:59:43.665Z,99.90
2024-01-21T05:00:45.431Z,99.90
2024-01-21T05:01:50.994Z,99.90
2024-01-21T05:02:52.910Z,99.90
2024-01-21T05:03:54.880Z,99.90
2024-01-21T05:04:56.696Z,99.90
2024-01-21T05:05:58.618Z,99.90
2024-01-21T05:07:00.370Z,62.10
2024-01-21T05:08:02.149Z,42.80
2024-01-21T05:09:04.094Z,6.60
2024-01-21T05:10:06.406Z,9.40
2024-01-21T05:11:08.377Z,1.00
2024-01-21T05:12:10.065Z,1.00
2024-01-21T05:13:11.726Z,1.00
2024-01-21T05:14:13.552Z,1.00
2024-01-21T05:15:15.342Z,1.00
2024-01-21T05:16:17.149Z,1.00
2024-01-21T05:17:18.814Z,22.00
2024-01-21T05:18:21.633Z,99.90
2024-01-21T05:19:23.511Z,1.00
2024-01-21T05:20:25.499Z,1.00
2024-01-21T05:21:27.399Z,50.70
2024-01-21T05:22:29.691Z,52.60
2024-01-21T05:23:31.645Z,98.30
2024-01-21T05:24:37.413Z,99.90
2024-01-21T05:25:39.295Z,37.30
2024-01-21T05:26:45.101Z,80.80
2024-01-21T05:27:47.117Z,99.90
2024-01-21T05:28:49.011Z,99.90
2024-01-21T05:29:50.859Z,99.90
2024-01-21T05:30:52.654Z,99.90
2024-01-21T05:31:54.580Z,99.90
2024-01-21T05:32:56.429Z,99.90
2024-01-21T05:33:58.223Z,99.90
2024-01-21T05:35:00.137Z,75.50
2024-01-21T05:36:02.031Z,1.00
2024-01-21T05:37:03.997Z,1.00
2024-01-21T05:38:06.818Z,1.00
2024-01-21T05:39:08.597Z,1.00
2024-01-21T05:40:10.692Z,1.00
2024-01-21T05:41:16.357Z,1.00
2024-01-21T05:42:18.206Z,1.00
2024-01-21T05:43:20.104Z,1.00
2024-01-21T05:44:21.852Z,99.90
2024-01-21T05:45:24.132Z,99.90
2024-01-21T05:46:25.836Z,99.90
2024-01-21T05:47:27.591Z,99.90
2024-01-21T05:48:29.882Z,99.90
2024-01-21T05:49:34.313Z,99.90
2024-01-21T05:50:36.148Z,55.40
2024-01-21T05:51:37.937Z,1.00
2024-01-21T05:52:39.698Z,1.00
2024-01-21T05:53:43.189Z,1.00
2024-01-21T05:54:44.931Z,7.10
2024-01-21T05:55:47.153Z,1.00
2024-01-21T05:56:48.936Z,1.00
2024-01-21T05:57:50.680Z,1.00
2024-01-21T05:58:52.385Z,1.00
2024-01-21T05:59:54.038Z,1.00
2024-01-21T06:00:55.852Z,1.00
2024-01-21T06:01:57.644Z,1.00
2024-01-21T06:02:59.384Z,1.00
2024-01-21T06:04:01.116Z,1.00
2024-01-21T06:05:03.126Z,1.00
2024-01-21T06:06:05.001Z,1.00
2024-01-21T06:07:09.325Z,1.00
2024-01-21T06:08:11.472Z,1.00
2024-01-21T06:09:13.656Z,1.00
2024-01-21T06:10:15.692Z,1.00
2024-01-21T06:11:17.606Z,1.00
2024-01-21T06:12:19.302Z,1.00
2024-01-21T06:13:21.085Z,1.00
2024-01-21T06:14:22.793Z,1.00
2024-01-21T06:15:24.552Z,1.00
2024-01-21T06:16:26.264Z,1.00
2024-01-21T06:17:28.038Z,99.90
2024-01-21T06:18:30.419Z,99.90
2024-01-21T06:19:32.399Z,99.90
2024-01-21T06:20:34.148Z,99.90
2024-01-21T06:21:41.419Z,99.90
2024-01-21T06:22:43.169Z,99.90
2024-01-21T06:23:45.991Z,99.90
2024-01-21T06:24:47.714Z,99.90
2024-01-21T06:25:50.287Z,99.90
2024-01-21T06:26:54.748Z,99.90
2024-01-21T06:27:56.568Z,99.90
2024-01-21T06:28:58.275Z,99.90
2024-01-21T06:30:14.781Z,99.90
2024-01-21T06:31:16.660Z,99.90
2024-01-21T06:32:18.566Z,99.90
2024-01-21T06:33:20.889Z,99.90
2024-01-21T06:34:22.778Z,99.90
2024-01-21T06:35:24.559Z,99.90
2024-01-21T06:36:26.709Z,99.90
2024-01-21T06:37:28.595Z,99.90
2024-01-21T06:38:30.325Z,99.90
2024-01-21T06:39:32.115Z,99.90
2024-01-21T06:40:33.824Z,99.90
2024-01-21T06:41:35.523Z,99.90
2024-01-21T06:42:38.244Z,99.90
2024-01-21T06:43:40.000Z,99.90
2024-01-21T06:44:42.994Z,99.90
2024-01-21T06:45:45.056Z,99.90
2024-01-21T06:46:46.770Z,99.90
2024-01-21T06:47:48.596Z,99.90
2024-01-21T06:48:50.675Z,99.90
2024-01-21T06:49:52.672Z,99.90
2024-01-21T06:50:54.515Z,99.90
2024-01-21T06:51:56.298Z,99.90
2024-01-21T06:52:58.156Z,99.90
2024-01-21T06:54:01.205Z,99.90
2024-01-21T06:55:03.205Z,99.90
2024-01-21T06:56:08.360Z,99.90
2024-01-21T06:57:10.106Z,99.90
2024-01-21T06:58:12.069Z,99.90
2024-01-21T06:59:13.839Z,99.90
2024-01-21T07:00:16.255Z,99.90
2024-01-21T07:01:18.845Z,99.90
2024-01-21T07:02:20.709Z,99.90
2024-01-21T07:03:22.715Z,99.90
2024-01-21T07:04:24.626Z,99.90
2024-01-21T07:05:26.815Z,99.90
2024-01-21T07:06:28.720Z,99.90
2024-01-21T07:07:30.598Z,99.90
2024-01-21T07:08:32.382Z,99.90
2024-01-21T07:09:34.164Z,99.90
2024-01-21T07:10:35.833Z,99.90
2024-01-21T07:11:42.166Z,99.90
2024-01-21T07:12:44.136Z,99.90
2024-01-21T07:13:46.496Z,99.90
2024-01-21T07:14:48.122Z,99.90
2024-01-21T07:15:49.940Z,99.90
2024-01-21T07:16:51.769Z,99.90
2024-01-21T07:17:53.986Z,99.90
2024-01-21T07:18:55.795Z,99.90
2024-01-21T07:19:57.535Z,99.90
2024-01-21T07:20:59.335Z,99.90
2024-01-21T07:22:01.101Z,99.90
2024-01-21T07:23:02.854Z,99.90
2024-01-21T07:24:04.867Z,99.90
2024-01-21T07:25:06.848Z,99.90
2024-01-21T07:26:09.477Z,99.90
2024-01-21T07:27:11.165Z,99.90
2024-01-21T07:28:12.833Z,99.90
2024-01-21T07:29:14.543Z,99.90
2024-01-21T07:30:16.510Z,99.90
2024-01-21T07:31:18.310Z,99.90
2024-01-21T07:32:19.980Z,99.90
2024-01-21T07:33:21.784Z,99.90
2024-01-21T07:34:24.029Z,99.90
2024-01-21T07:35:29.590Z,99.90
2024-01-21T07:36:31.508Z,99.90
2024-01-21T07:37:33.341Z,99.90
2024-01-21T07:38:35.069Z,99.90
2024-01-21T07:39:36.830Z,99.90
2024-01-21T07:40:38.480Z,99.90
2024-01-21T07:41:40.447Z,99.90
2024-01-21T07:42:42.115Z,99.90
2024-01-21T07:43:43.804Z,99.90
2024-01-21T07:44:45.809Z,99.90
2024-01-21T07:45:47.914Z,99.90
2024-01-21T07:46:49.768Z,99.90
2024-01-21T07:47:51.758Z,99.90
2024-01-21T07:48:53.624Z,99.90
2024-01-21T07:49:56.544Z,99.90
2024-01-21T07:50:58.217Z,99.90
2024-01-21T07:51:59.937Z,99.90
2024-01-21T07:53:01.579Z,99.90
2024-01-21T07:54:03.381Z,99.90
2024-01-21T07:55:05.464Z,99.90
2024-01-21T07:56:07.133Z,99.90
2024-01-21T07:57:08.844Z,99.90
2024-01-21T07:58:10.484Z,99.90
2024-01-21T07:59:12.105Z,99.90
2024-01-21T08:00:14.989Z,99.90
2024-01-21T08:01:21.798Z,99.90
2024-01-21T08:02:28.096Z,99.90
2024-01-21T08:03:30.116Z,99.90
2024-01-21T08:04:31.861Z,99.90
2024-01-21T08:05:34.424Z,99.90
2024-01-21T08:06:36.194Z,99.90
2024-01-21T08:07:37.919Z,99.90
2024-01-21T08:08:39.693Z,99.90
2024-01-21T08:09:41.341Z,99.90
2024-01-21T08:10:43.035Z,99.90
2024-01-21T08:11:44.664Z,99.90
2024-01-21T08:12:46.388Z,99.90
2024-01-21T08:13:48.009Z,99.90
2024-01-21T08:14:49.720Z,99.90
2024-01-21T08:15:51.545Z,99.90
2024-01-21T08:16:54.199Z,99.90
2024-01-21T08:17:55.888Z,99.90
2024-01-21T08:18:57.863Z,99.90
2024-01-21T08:20:00.061Z,99.90
2024-01-21T08:21:01.830Z,99.90
2024-01-21T08:22:04.016Z,99.90
2024-01-21T08:23:05.908Z,99.90
2024-01-21T08:24:07.633Z,99.90
2024-01-21T08:25:09.593Z,99.90
2024-01-21T08:26:11.705Z,99.90
2024-01-21T08:27:13.896Z,99.90
2024-01-21T08:28:15.595Z,99.90
2024-01-21T08:29:17.222Z,99.90
2024-01-21T08:30:19.057Z,99.90
2024-01-21T08:31:20.920Z,99.90
2024-01-21T08:32:22.580Z,99.90
2024-01-21T08:33:24.350Z,99.90
2024-01-21T08:34:29.915Z,99.90
2024-01-21T08:35:33.174Z,99.90
2024-01-21T08:36:35.517Z,99.90
2024-01-21T08:37:37.991Z,99.90
2024-01-21T08:38:39.904Z,99.90
2024-01-21T08:39:43.608Z,99.90
2024-01-21T08:40:46.989Z,99.90
2024-01-21T08:41:48.722Z,99.90
2024-01-21T08:42:50.438Z,99.90
2024-01-21T08:43:52.090Z,99.90
2024-01-21T08:44:54.100Z,99.90
2024-01-21T08:45:56.981Z,99.90
2024-01-21T08:47:00.235Z,99.90
2024-01-21T08:48:01.978Z,99.90
2024-01-21T08:49:04.006Z,99.90
2024-01-21T08:50:06.156Z,99.90
2024-01-21T08:51:07.855Z,99.90
2024-01-21T08:52:09.621Z,99.90
2024-01-21T08:53:11.269Z,99.90
2024-01-21T08:54:12.934Z,99.90
2024-01-21T08:55:14.585Z,99.90
2024-01-21T08:56:16.281Z,99.90
2024-01-21T08:57:18.238Z,99.90
2024-01-21T08:58:19.941Z,99.90
2024-01-21T08:59:21.630Z,99.90
2024-01-21T09:00:23.463Z,99.90
2024-01-21T09:01:25.779Z,99.90
2024-01-21T09:02:27.554Z,99.90
2024-01-21T09:03:29.957Z,99.90
2024-01-21T09:04:31.809Z,99.90
2024-01-21T09:05:33.527Z,99.90
2024-01-21T09:06:36.689Z,99.90
2024-01-21T09:07:38.475Z,99.90
2024-01-21T09:08:40.177Z,99.90
2024-01-21T09:09:41.865Z,99.90
2024-01-21T09:10:44.640Z,99.90
2024-01-21T09:11:48.381Z,99.90
2024-01-21T09:12:50.508Z,99.90
2024-01-21T09:13:52.477Z,99.90
2024-01-21T09:14:54.143Z,99.90
2024-01-21T09:15:57.036Z,99.90
2024-01-21T09:16:58.789Z,99.90
2024-01-21T09:18:01.062Z,99.90
2024-01-21T09:19:03.462Z,99.90
2024-01-21T09:20:05.743Z,99.90
2024-01-21T09:21:12.925Z,99.90
2024-01-21T09:22:21.186Z,99.90
2024-01-21T09:23:22.928Z,99.90
2024-01-21T09:24:24.588Z,99.90
2024-01-21T09:25:26.287Z,99.90
2024-01-21T09:26:28.267Z,99.90
2024-01-21T09:27:29.929Z,99.90
2024-01-21T09:28:31.671Z,99.90
2024-01-21T09:29:33.389Z,99.90
2024-01-21T09:30:35.055Z,99.90
2024-01-21T09:31:36.965Z,99.90
2024-01-21T09:32:38.605Z,99.90
2024-01-21T09:33:40.468Z,99.90
2024-01-21T09:34:44.198Z,99.90
2024-01-21T09:35:47.022Z,99.90
2024-01-21T09:36:49.047Z,99.90
2024-01-21T09:37:50.733Z,99.90
2024-01-21T09:38:52.408Z,99.90
2024-01-21T09:39:54.070Z,99.90
2024-01-21T09:41:08.075Z,99.90
2024-01-21T09:42:10.040Z,99.90
2024-01-21T09:43:13.427Z,99.90
2024-01-21T09:44:15.985Z,99.90
2024-01-21T09:45:18.256Z,99.90
2024-01-21T09:46:19.944Z,99.90
2024-01-21T09:47:22.088Z,99.90
2024-01-21T09:48:24.745Z,99.90
2024-01-21T09:49:27.831Z,99.90
2024-01-21T09:50:31.661Z,99.90
2024-01-21T09:51:33.817Z,99.90
2024-01-21T09:52:35.649Z,99.90
2024-01-21T09:53:37.331Z,99.90
2024-01-21T09:54:39.067Z,99.90
2024-01-21T09:55:40.832Z,99.90
2024-01-21T09:56:42.913Z,99.90
2024-01-21T09:57:46.078Z,99.90
2024-01-21T09:58:50.424Z,99.90
2024-01-21T09:59:52.114Z,99.90
2024-01-21T10:00:54.174Z,99.90
2024-01-21T10:01:56.036Z,99.90
2024-01-21T10:02:57.694Z,99.90
2024-01-21T10:03:59.399Z,99.90
2024-01-21T10:05:01.474Z,99.90
2024-01-21T10:06:03.357Z,99.90
2024-01-21T10:07:05.134Z,99.90
2024-01-21T10:08:07.422Z,99.90
2024-01-21T10:09:15.014Z,99.90
2024-01-21T10:10:17.643Z,99.90
2024-01-21T10:11:19.408Z,99.90
2024-01-21T10:12:23.328Z,99.90
2024-01-21T10:13:25.076Z,99.90
2024-01-21T10:14:28.112Z,99.90
2024-01-21T10:15:31.465Z,99.90
2024-01-21T10:16:33.285Z,99.90
2024-01-21T10:17:35.440Z,99.90
2024-01-21T10:18:37.563Z,99.90
2024-01-21T10:19:39.555Z,99.90
2024-01-21T10:20:43.149Z,99.90
2024-01-21T10:21:44.887Z,99.90
2024-01-21T10:22:48.728Z,99.90
2024-01-21T10:23:50.461Z,99.90
2024-01-21T10:24:52.151Z,99.90
2024-01-21T10:25:54.005Z,99.90
2024-01-21T10:26:57.298Z,99.90
2024-01-21T10:27:59.241Z,99.90
2024-01-21T10:29:01.939Z,99.90
2024-01-21T10:30:04.716Z,99.90
2024-01-21T10:31:07.978Z,99.90
2024-01-21T10:32:14.119Z,99.90
2024-01-21T10:33:16.473Z,99.90
2024-01-21T10:34:18.241Z,99.90
2024-01-21T10:35:19.915Z,99.90
2024-01-21T10:36:23.796Z,99.90
2024-01-21T10:37:28.549Z,99.90
2024-01-21T10:38:33.903Z,99.90
2024-01-21T10:39:37.775Z,99.90
2024-01-21T10:40:45.605Z,99.90
2024-01-21T10:41:48.008Z,99.90
2024-01-21T10:42:54.993Z,99.90
2024-01-21T10:43:58.614Z,99.90
2024-01-21T10:45:02.664Z,99.90
2024-01-21T10:46:05.576Z,99.90
2024-01-21T10:47:09.627Z,99.90
2024-01-21T10:48:13.750Z,99.90
2024-01-21T10:49:15.775Z,99.90
2024-01-21T10:50:20.272Z,99.90
2024-01-21T10:51:22.793Z,99.90
2024-01-21T10:52:25.043Z,99.90
2024-01-21T10:53:28.026Z,99.90
2024-01-21T10:54:32.326Z,99.90
2024-01-21T10:55:39.740Z,99.90
2024-01-21T10:56:42.255Z,99.90
2024-01-21T10:57:44.762Z,99.90
2024-01-21T10:58:48.622Z,99.90
2024-01-21T10:59:52.820Z,99.90
2024-01-21T11:01:02.100Z,99.90
2024-01-21T11:02:03.943Z,99.90
2024-01-21T11:03:28.613Z,99.90
2024-01-21T11:04:30.612Z,99.90
2024-01-21T11:05:32.453Z,99.90
2024-01-21T11:06:37.820Z,99.90
2024-01-21T11:07:43.536Z,99.90
2024-01-21T11:08:45.770Z,99.90
2024-01-21T11:09:49.606Z,99.90
2024-01-21T11:11:08.092Z,99.90
2024-01-21T11:12:10.011Z,99.90
2024-01-21T11:13:41.731Z,99.90
2024-01-21T11:14:44.639Z,99.90
2024-01-21T11:15:49.803Z,99.90
2024-01-21T11:16:55.394Z,99.90
2024-01-21T11:18:12.930Z,99.90
2024-01-21T11:19:18.261Z,99.90
2024-01-21T11:20:27.628Z,99.90
2024-01-21T11:21:30.805Z,99.90
2024-01-21T11:22:38.290Z,99.90
2024-01-21T11:23:40.868Z,99.90
2024-01-21T11:24:43.757Z,99.90
2024-01-21T11:25:51.895Z,99.90
2024-01-21T11:26:53.741Z,99.90
2024-01-21T11:27:56.864Z,99.90
2024-01-21T11:29:00.392Z,99.90
2024-01-21T11:30:02.784Z,99.90
2024-01-21T11:31:08.246Z,99.90
2024-01-21T11:32:09.979Z,99.90
2024-01-21T11:33:11.786Z,99.90
2024-01-21T11:34:13.616Z,99.90
2024-01-21T11:35:17.385Z,99.90
2024-01-21T11:36:20.810Z,99.90
2024-01-21T11:37:23.171Z,99.90
2024-01-21T11:38:24.829Z,99.90
2024-01-21T11:39:26.843Z,99.90
2024-01-21T11:40:28.564Z,99.90
2024-01-21T11:41:43.490Z,99.90
2024-01-21T11:42:46.998Z,99.90
2024-01-21T11:43:48.918Z,99.90
2024-01-21T11:44:50.742Z,99.90
2024-01-21T11:46:06.368Z,99.90
2024-01-21T11:47:08.882Z,99.90
2024-01-21T11:48:11.466Z,99.90
2024-01-21T11:49:13.386Z,99.90
2024-01-21T11:50:18.999Z,99.90
2024-01-21T11:51:20.798Z,99.90
2024-01-21T11:52:22.703Z,99.90
2024-01-21T11:53:24.594Z,99.90
2024-01-21T11:54:26.490Z,99.90
2024-01-21T11:55:28.195Z,99.90
2024-01-21T11:56:29.939Z,99.90
2024-01-21T11:57:31.878Z,99.90
2024-01-21T11:58:34.333Z,99.90
2024-01-21T11:59:36.940Z,99.90
2024-01-21T12:00:39.086Z,99.90
2024-01-21T12:01:41.485Z,99.90
2024-01-21T12:02:43.369Z,99.90
2024-01-21T12:03:48.041Z,99.90
2024-01-21T12:04:49.950Z,99.90
2024-01-21T12:05:51.789Z,99.90
2024-01-21T12:06:54.166Z,99.90
2024-01-21T12:07:56.737Z,99.90
2024-01-21T12:09:31.481Z,99.90
2024-01-21T12:11:36.449Z,99.90
2024-01-21T12:12:55.617Z,99.90
2024-01-21T12:14:13.498Z,99.90
2024-01-21T12:15:21.235Z,99.90
2024-01-21T12:16:52.057Z,99.90
2024-01-21T12:18:06.619Z,99.90
2024-01-21T12:19:30.918Z,99.90
2024-01-21T12:25:33.633Z,99.90
2024-01-21T12:29:09.272Z,99.90
2024-01-21T12:30:20.087Z,99.90
2024-01-21T12:31:29.196Z,99.90
2024-01-21T12:32:50.378Z,99.90
2024-01-21T12:35:47.173Z,99.90
2024-01-21T12:36:54.094Z,99.90
2024-01-21T12:38:04.773Z,99.90
2024-01-21T12:40:44.129Z,99.90
2024-01-21T12:41:51.297Z,99.90
2024-01-21T12:42:57.067Z,99.90
2024-01-21T12:43:59.340Z,99.90
2024-01-21T12:45:08.815Z,99.90
2024-01-21T12:46:23.765Z,99.90
2024-01-21T12:47:28.714Z,99.90
2024-01-21T12:48:31.894Z,99.90
2024-01-21T12:49:40.870Z,99.90
2024-01-21T12:50:45.082Z,99.90
2024-01-21T12:51:52.239Z,99.90
2024-01-21T12:53:01.312Z,99.90
2024-01-21T12:54:13.105Z,99.90
2024-01-21T12:55:43.297Z,99.90
2024-01-21T12:56:51.549Z,99.90
2024-01-21T12:57:55.228Z,99.90
2024-01-21T12:58:59.563Z,99.90
2024-01-21T13:00:02.226Z,99.90
2024-01-21T13:01:07.866Z,99.90
2024-01-21T13:02:23.230Z,99.90
2024-01-21T13:03:32.790Z,99.90
2024-01-21T13:04:35.056Z,99.90
2024-01-21T13:05:37.271Z,99.90
2024-01-21T13:06:45.205Z,99.90
2024-01-21T13:07:53.093Z,99.90
2024-01-21T13:08:55.265Z,99.90
2024-01-21T13:10:01.850Z,99.90
2024-01-21T13:11:08.002Z,99.90
2024-01-21T13:12:12.385Z,99.90
2024-01-21T13:13:15.659Z,99.90
2024-01-21T13:14:22.301Z,99.90
2024-01-21T13:15:29.731Z,99.90
2024-01-21T13:16:34.966Z,99.90
2024-01-21T13:17:37.112Z,99.90
2024-01-21T13:18:39.743Z,99.90
2024-01-21T13:19:47.714Z,99.90
2024-01-21T13:20:50.389Z,99.90
2024-01-21T13:21:52.721Z,99.90
2024-01-21T13:22:54.770Z,99.90
2024-01-21T13:23:56.940Z,99.90
2024-01-21T13:25:00.076Z,99.90
2024-01-21T13:26:08.653Z,99.90
2024-01-21T13:27:21.037Z,99.90
2024-01-21T13:28:23.074Z,99.90
2024-01-21T13:29:43.658Z,99.90
2024-01-21T13:30:47.271Z,99.90
2024-01-21T13:31:53.965Z,99.90
2024-01-21T13:33:00.289Z,99.90
2024-01-21T13:34:03.486Z,99.90
2024-01-21T13:35:09.204Z,99.90
2024-01-21T13:36:11.304Z,99.90
2024-01-21T13:37:18.147Z,99.90
2024-01-21T13:38:25.802Z,99.90
2024-01-21T13:39:33.344Z,99.90
2024-01-21T13:40:35.723Z,99.90
2024-01-21T13:41:37.799Z,99.90
2024-01-21T13:42:42.169Z,99.90
2024-01-21T13:43:44.199Z,99.90
2024-01-21T13:44:46.026Z,99.90
2024-01-21T13:45:47.918Z,99.90
2024-01-21T13:46:49.949Z,99.90
2024-01-21T13:47:51.614Z,99.90
2024-01-21T13:48:54.381Z,99.90
2024-01-21T13:49:56.178Z,99.90
2024-01-21T13:50:57.936Z,99.90
2024-01-21T13:51:59.801Z,99.90
2024-01-21T13:53:02.957Z,99.90